KVTN/VTN METAR and TAF weather

Enter ICAO airport designator
Station Type Date Time Source
KVTN METAR 2020/01/27 10:52 UTC NOAA

KVTN 271052Z AUTO 33007KT 10SM OVC011 01/M03 A3001 RMK AO2 SLP178 T00061033


Station Type Date Time Source
KVTN Decoded METAR 2020/01/27 10:52 UTC NOAA

MILLER FIELD - VALENTINE, NE, NE, United States (KVTN) 42-52N 100-33W 788M
Jan 27, 2020 - 05:52 AM EST / 2020.01.27 1052 UTC
Wind: from the NNW (330 degrees) at 8 MPH (7 KT):0
Visibility: 10 mile(s):0
Sky conditions: overcast
Temperature: 33.1 F (0.6 C)
Windchill: 26 F (-3 C):1
Dew Point: 26.1 F (-3.3 C)
Relative Humidity: 75%
Pressure (altimeter): 30.01 in. Hg (1016 hPa)
ob: KVTN 271052Z AUTO 33007KT 10SM OVC011 01/M03 A3001 RMK AO2 SLP178 T00061033
cycle: 11

Station Type Date Time Source
KVTN TAF 2020/01/27 10:24 UTC NOAA

TAF
AMD KVTN 271021Z 2710/2806 34009KT P6SM OVC011
FM271100 VRB04KT P6SM OVC005
FM271900 VRB03KT P6SM OVC013
FM280000 VRB04KT P6SM OVC009
FM280500 00000KT P6SM OVC005

Example: see airport list